Time;durP1;ratioP1;P1;durP2;ratioP2;P2;SDS_P1;SDS_P2;PMS_P1;PMS_P2;Temp;Humidity;BMP_temperature;BMP_pressure;BME280_temperature;BME280_humidity;BME280_pressure;Samples;Min_cycle;Max_cycle;Signal;HPM_P1;HPM_P2
2023/09/26 00:00:56;;;;;;;1.50;1.10;;;15.10;98.20;;;;;;4892492;29;20493;-83
2023/09/26 00:03:23;;;;;;;1.50;1.00;;;15.10;98.20;;;;;;4912274;29;20496;-83
2023/09/26 00:05:52;;;;;;;1.50;1.10;;;15.10;98.20;;;;;;4894803;29;20470;-83
2023/09/26 00:08:22;;;;;;;1.50;1.00;;;15.10;98.20;;;;;;4911850;29;20485;-84
2023/09/26 00:10:49;;;;;;;1.50;1.10;;;15.10;98.20;;;;;;4894387;29;20477;-83
2023/09/26 00:13:20;;;;;;;1.50;1.10;;;15.10;98.20;;;;;;4907373;29;20469;-85
2023/09/26 00:15:49;;;;;;;1.50;1.00;;;15.10;98.20;;;;;;4903033;29;20489;-84
2023/09/26 00:18:16;;;;;;;1.50;1.10;;;15.10;98.20;;;;;;4893088;29;20477;-84
2023/09/26 00:20:46;;;;;;;1.43;1.00;;;15.10;98.20;;;;;;4903421;29;20492;-83
2023/09/26 00:23:15;;;;;;;1.43;1.00;;;15.10;98.20;;;;;;4889820;29;20485;-83
2023/09/26 00:25:44;;;;;;;1.47;1.00;;;15.10;98.20;;;;;;4902608;29;20584;-83
2023/09/26 00:28:34;;;;;;;1.50;1.00;;;15.10;98.20;;;;;;4906521;29;20482;-84
2023/09/26 00:31:04;;;;;;;1.47;1.00;;;15.10;98.20;;;;;;4893282;29;20533;-82
2023/09/26 00:33:33;;;;;;;1.50;1.07;;;15.00;98.20;;;;;;4908546;29;20496;-84
2023/09/26 00:36:07;;;;;;;1.50;1.10;;;15.00;98.20;;;;;;4895728;29;20461;-84
2023/09/26 00:38:36;;;;;;;1.50;1.03;;;15.00;98.20;;;;;;4917487;29;20537;-83
2023/09/26 00:41:03;;;;;;;1.50;1.10;;;15.00;98.20;;;;;;4893971;29;20548;-84
2023/09/26 00:43:32;;;;;;;1.50;1.00;;;15.00;98.20;;;;;;4907310;29;20493;-83
2023/09/26 00:46:01;;;;;;;1.50;1.10;;;14.90;98.20;;;;;;4892761;29;20523;-83
2023/09/26 00:48:29;;;;;;;1.50;1.00;;;14.90;98.20;;;;;;4916486;29;20985;-83
2023/09/26 00:50:56;;;;;;;1.47;0.90;;;14.90;98.20;;;;;;4893306;29;20493;-81
2023/09/26 00:53:26;;;;;;;1.43;1.00;;;14.90;98.20;;;;;;4913398;29;20493;-82
2023/09/26 00:56:02;;;;;;;1.50;1.03;;;14.90;98.20;;;;;;4893152;29;20485;-82
2023/09/26 00:58:35;;;;;;;1.47;0.90;;;14.90;98.20;;;;;;4910322;29;20948;-81
2023/09/26 01:01:12;;;;;;;1.50;1.10;;;14.80;98.20;;;;;;4894434;29;20489;-81
2023/09/26 01:03:39;;;;;;;1.50;1.10;;;14.80;98.20;;;;;;4913025;29;20512;-85
2023/09/26 01:06:06;;;;;;;1.40;0.90;;;14.80;98.20;;;;;;4896874;29;20514;-85
2023/09/26 01:08:37;;;;;;;1.50;1.00;;;14.80;98.20;;;;;;4913374;29;20462;-82
2023/09/26 01:11:15;;;;;;;1.50;1.00;;;14.70;98.20;;;;;;4897710;29;20477;-85
2023/09/26 01:13:42;;;;;;;1.50;1.10;;;14.70;98.20;;;;;;4915351;29;20486;-83
2023/09/26 01:16:16;;;;;;;1.50;1.00;;;14.60;98.20;;;;;;4898361;29;20491;-85
2023/09/26 01:18:43;;;;;;;1.50;1.00;;;14.60;98.20;;;;;;4917717;29;20465;-82
2023/09/26 01:21:19;;;;;;;1.50;1.00;;;14.60;98.20;;;;;;4898433;29;20530;-82
2023/09/26 01:23:56;;;;;;;1.47;1.00;;;14.60;98.20;;;;;;4917274;29;20492;-82
2023/09/26 01:26:44;;;;;;;1.50;1.00;;;14.60;98.20;;;;;;4900275;29;20503;-82
2023/09/26 01:29:15;;;;;;;1.50;1.00;;;14.50;98.20;;;;;;4912299;29;20616;-82
2023/09/26 01:31:45;;;;;;;1.50;1.10;;;14.50;98.20;;;;;;4903689;29;20552;-82
2023/09/26 01:34:13;;;;;;;1.50;1.10;;;14.50;98.20;;;;;;4912247;29;21225;-81
2023/09/26 01:37:30;;;;;;;1.50;1.10;;;14.40;98.20;;;;;;4902568;29;20602;-80
2023/09/26 01:39:58;;;;;;;1.50;1.00;;;14.40;98.20;;;;;;4882156;29;20480;-82
2023/09/26 01:42:26;;;;;;;1.50;1.00;;;14.40;98.20;;;;;;4903765;29;20516;-83
2023/09/26 01:44:58;;;;;;;1.50;1.10;;;14.40;98.20;;;;;;4909392;29;20468;-82
2023/09/26 01:50:20;;;;;;;1.47;1.00;;;14.30;98.20;;;;;;4907173;29;20504;-81
2023/09/26 01:52:47;;;;;;;1.47;1.00;;;14.30;98.20;;;;;;4912955;29;20500;-81
2023/09/26 01:55:22;;;;;;;1.50;1.10;;;14.30;98.20;;;;;;4905325;29;20537;-83
2023/09/26 01:57:52;;;;;;;1.50;1.00;;;14.20;98.20;;;;;;4906389;29;20532;-82
2023/09/26 02:00:20;;;;;;;1.50;1.13;;;14.20;98.20;;;;;;4907369;29;20994;-84
2023/09/26 02:02:59;;;;;;;1.50;1.00;;;14.20;98.20;;;;;;4908745;29;20491;-86
2023/09/26 02:05:29;;;;;;;1.50;1.20;;;14.20;98.20;;;;;;4908071;29;20496;-84
2023/09/26 02:08:11;;;;;;;1.50;1.00;;;14.20;98.20;;;;;;4913894;29;20524;-84
2023/09/26 02:10:39;;;;;;;1.50;1.00;;;14.20;98.20;;;;;;4913537;29;20485;-83
2023/09/26 02:16:00;;;;;;;1.50;1.00;;;14.10;98.20;;;;;;4892182;29;20457;-86
2023/09/26 02:18:29;;;;;;;1.50;1.00;;;14.10;98.20;;;;;;4921948;29;20529;-85
2023/09/26 02:21:04;;;;;;;1.50;1.00;;;14.10;98.20;;;;;;4892985;29;20482;-82
2023/09/26 02:23:41;;;;;;;1.47;0.90;;;14.10;98.20;;;;;;4911127;29;20485;-81
2023/09/26 02:26:10;;;;;;;1.47;1.00;;;14.10;98.20;;;;;;4901926;29;20514;-82
2023/09/26 02:28:41;;;;;;;1.50;1.20;;;14.10;98.20;;;;;;4917381;29;20462;-82
2023/09/26 02:31:14;;;;;;;1.50;1.00;;;14.10;98.20;;;;;;4891053;29;20512;-83
2023/09/26 02:33:51;;;;;;;1.50;1.00;;;14.10;98.20;;;;;;4912463;29;20841;-82
2023/09/26 02:36:34;;;;;;;;;;;;;;;;;;;;;
2023/09/26 02:39:02;;;;;;;1.50;1.10;;;14.10;98.20;;;;;;4914040;29;20478;-82
2023/09/26 02:41:31;;;;;;;1.50;1.10;;;14.10;98.20;;;;;;4894470;29;20511;-82
2023/09/26 02:44:00;;;;;;;1.50;1.10;;;14.10;98.20;;;;;;4911771;29;20493;-83
2023/09/26 02:46:28;;;;;;;1.50;1.10;;;14.10;98.20;;;;;;4899719;29;20485;-83
2023/09/26 02:49:00;;;;;;;1.50;1.00;;;14.10;98.20;;;;;;4909721;29;20498;-84
2023/09/26 02:51:29;;;;;;;1.50;1.10;;;14.10;98.20;;;;;;4903552;29;20526;-83
2023/09/26 02:53:56;;;;;;;1.50;1.00;;;14.10;98.20;;;;;;4913113;29;20470;-83
2023/09/26 02:56:23;;;;;;;1.50;1.00;;;14.00;98.20;;;;;;4896830;29;20497;-84
2023/09/26 02:58:53;;;;;;;1.50;1.00;;;14.00;98.20;;;;;;4917414;29;20461;-83
2023/09/26 03:01:23;;;;;;;1.47;1.00;;;14.00;98.20;;;;;;4893570;29;20544;-83
2023/09/26 03:03:51;;;;;;;1.50;1.00;;;14.00;98.20;;;;;;4911780;29;20505;-83
2023/09/26 03:08:52;;;;;;;1.50;1.10;;;13.90;98.20;;;;;;4901917;29;20501;-84
2023/09/26 03:11:18;;;;;;;2.23;1.77;;;13.90;98.20;;;;;;4899504;29;20495;-82
2023/09/26 03:13:45;;;;;;;1.43;1.00;;;13.90;98.20;;;;;;4915688;29;20534;-82
2023/09/26 03:16:14;;;;;;;1.50;1.10;;;13.90;98.20;;;;;;4892146;29;20493;-81
2023/09/26 03:18:41;;;;;;;1.50;1.10;;;13.80;98.20;;;;;;4891459;29;20538;-82
2023/09/26 03:21:08;;;;;;;1.50;1.00;;;13.80;98.20;;;;;;4871387;29;20478;-82
2023/09/26 03:23:35;;;;;;;1.40;0.90;;;13.80;98.20;;;;;;4889918;29;20492;-82
2023/09/26 03:26:02;;;;;;;1.50;1.10;;;13.80;98.20;;;;;;4874077;29;20474;-83
2023/09/26 03:28:29;;;;;;;1.50;1.10;;;13.80;98.20;;;;;;4892596;29;20490;-82
2023/09/26 03:31:03;;;;;;;1.50;1.10;;;13.80;98.20;;;;;;4872590;29;20489;-83
2023/09/26 03:33:32;;;;;;;1.50;1.00;;;13.80;98.20;;;;;;4889678;29;20534;-82
2023/09/26 03:35:59;;;;;;;1.50;1.00;;;13.70;98.20;;;;;;4872922;29;20470;-82
2023/09/26 03:38:28;;;;;;;1.50;1.00;;;13.70;98.20;;;;;;4896021;29;20502;-82
2023/09/26 03:41:05;;;;;;;1.50;0.90;;;13.70;98.20;;;;;;4873482;29;20542;-82
2023/09/26 03:43:32;;;;;;;1.50;1.00;;;13.70;98.20;;;;;;4887334;29;21008;-82
2023/09/26 03:46:06;;;;;;;1.50;1.00;;;13.70;98.20;;;;;;4871114;29;20462;-83
2023/09/26 03:48:35;;;;;;;1.50;1.00;;;13.60;98.20;;;;;;4890282;29;20585;-82
2023/09/26 03:51:09;;;;;;;1.50;1.10;;;13.60;98.20;;;;;;4870835;29;20466;-82
2023/09/26 03:53:36;;;;;;;1.50;1.00;;;13.60;98.20;;;;;;4891429;29;20467;-82
2023/09/26 03:56:05;;;;;;;1.47;1.00;;;13.60;98.20;;;;;;4871733;29;20549;-82
2023/09/26 03:58:32;;;;;;;1.50;1.00;;;13.60;98.20;;;;;;4889102;29;21012;-82
2023/09/26 04:01:08;;;;;;;1.50;1.10;;;13.60;98.20;;;;;;4871055;29;20466;-82
2023/09/26 04:03:37;;;;;;;1.50;1.03;;;13.60;98.20;;;;;;4889578;29;20494;-82
2023/09/26 04:06:04;;;;;;;1.50;1.10;;;13.60;98.20;;;;;;4873186;29;20496;-83
2023/09/26 04:08:30;;;;;;;1.50;1.10;;;13.60;98.20;;;;;;4892542;29;20576;-82
2023/09/26 04:10:57;;;;;;;1.50;1.10;;;13.60;98.20;;;;;;4870205;29;20470;-83
2023/09/26 04:13:24;;;;;;;1.50;1.10;;;13.60;98.20;;;;;;4888243;29;20489;-82
2023/09/26 04:15:52;;;;;;;1.50;1.10;;;13.60;98.20;;;;;;4871969;29;20470;-83
2023/09/26 04:18:19;;;;;;;1.50;1.00;;;13.60;98.20;;;;;;4893004;29;20490;-82
2023/09/26 04:20:47;;;;;;;1.50;1.00;;;13.60;98.20;;;;;;4880584;29;20498;-82
2023/09/26 04:23:17;;;;;;;1.50;1.10;;;13.60;98.20;;;;;;4866838;29;20859;-82
2023/09/26 04:25:45;;;;;;;1.50;1.00;;;13.60;98.20;;;;;;4881374;29;20458;-82
2023/09/26 04:28:12;;;;;;;1.50;1.10;;;13.60;98.20;;;;;;4869451;29;20478;-82
2023/09/26 04:30:40;;;;;;;1.50;1.07;;;13.60;98.20;;;;;;4880623;29;20490;-82
2023/09/26 04:33:27;;;;;;;1.50;1.00;;;13.60;98.20;;;;;;4883764;29;20496;-83
2023/09/26 04:35:58;;;;;;;1.50;1.10;;;13.50;98.20;;;;;;4879133;29;20509;-83
2023/09/26 04:38:25;;;;;;;1.50;1.00;;;13.50;98.20;;;;;;4899543;29;21044;-83
2023/09/26 04:40:52;;;;;;;1.43;1.00;;;13.50;98.20;;;;;;4876655;29;20474;-84
2023/09/26 04:43:18;;;;;;;1.50;1.10;;;13.50;98.20;;;;;;4897753;29;20754;-83
2023/09/26 04:45:47;;;;;;;1.50;1.10;;;13.50;98.20;;;;;;4880457;29;20482;-83
2023/09/26 04:48:36;;;;;;;1.50;1.10;;;13.50;98.20;;;;;;4887931;29;21898;-83
2023/09/26 04:51:23;;;;;;;1.50;1.00;;;13.40;98.20;;;;;;4884335;29;20493;-82
2023/09/26 04:53:56;;;;;;;1.50;1.10;;;13.50;98.20;;;;;;4892130;29;20469;-83
2023/09/26 04:56:23;;;;;;;1.50;1.00;;;13.50;98.20;;;;;;4882220;29;20923;-83
2023/09/26 04:58:50;;;;;;;1.50;1.00;;;13.50;98.20;;;;;;4897312;29;20538;-83
2023/09/26 05:01:17;;;;;;;1.50;1.00;;;13.50;98.20;;;;;;4881113;29;20500;-83
2023/09/26 05:03:44;;;;;;;1.50;1.00;;;13.50;98.20;;;;;;4896163;29;20588;-83
2023/09/26 05:06:12;;;;;;;1.50;1.00;;;13.50;98.20;;;;;;4886651;29;20581;-83
2023/09/26 05:08:41;;;;;;;1.50;1.00;;;13.50;98.20;;;;;;4901662;29;20509;-83
2023/09/26 05:11:07;;;;;;;1.50;1.00;;;13.50;98.20;;;;;;4880711;29;20999;-83
2023/09/26 05:13:34;;;;;;;1.50;1.00;;;13.50;98.20;;;;;;4895875;29;20462;-83
2023/09/26 05:16:01;;;;;;;1.50;1.00;;;13.40;98.20;;;;;;4881516;29;20474;-81
2023/09/26 05:18:30;;;;;;;1.50;1.00;;;13.40;98.20;;;;;;4900930;29;20883;-82
2023/09/26 05:21:14;;;;;;;1.50;1.10;;;13.40;98.20;;;;;;4883694;29;20501;-84
2023/09/26 05:23:42;;;;;;;1.50;1.20;;;13.40;98.20;;;;;;4897412;29;20665;-82
2023/09/26 05:26:10;;;;;;;1.50;1.03;;;13.40;98.20;;;;;;4877261;29;20485;-82
2023/09/26 05:28:37;;;;;;;1.50;1.10;;;13.40;98.20;;;;;;4893890;29;20485;-82
2023/09/26 05:31:04;;;;;;;1.50;1.20;;;13.30;98.20;;;;;;4878776;29;20473;-82
2023/09/26 05:33:31;;;;;;;1.50;1.00;;;13.30;98.20;;;;;;4894862;29;20480;-82
2023/09/26 05:35:58;;;;;;;1.50;1.00;;;13.30;98.20;;;;;;4881521;29;20466;-82
2023/09/26 05:38:26;;;;;;;1.50;1.10;;;13.40;98.20;;;;;;4898156;29;20742;-82
2023/09/26 05:40:54;;;;;;;1.50;1.00;;;13.40;98.20;;;;;;4879982;29;20477;-82
2023/09/26 05:43:22;;;;;;;1.50;1.10;;;13.50;98.20;;;;;;4897223;29;20475;-81
2023/09/26 05:45:51;;;;;;;1.50;1.10;;;13.40;98.20;;;;;;4877792;29;20541;-82
2023/09/26 05:48:17;;;;;;;1.50;1.00;;;13.50;98.20;;;;;;4897244;29;20915;-82
2023/09/26 05:50:44;;;;;;;1.47;1.00;;;13.50;98.20;;;;;;4891869;29;20499;-81
2023/09/26 05:53:11;;;;;;;1.50;1.00;;;13.50;98.20;;;;;;4894899;29;20493;-82
2023/09/26 05:55:38;;;;;;;1.50;1.10;;;13.50;98.20;;;;;;4891215;29;20468;-82
2023/09/26 05:58:06;;;;;;;1.50;1.00;;;13.50;98.20;;;;;;4888006;29;20493;-82
2023/09/26 06:00:35;;;;;;;1.50;1.00;;;13.60;98.20;;;;;;4884649;29;20536;-82
2023/09/26 06:03:02;;;;;;;1.50;1.10;;;13.60;98.20;;;;;;4889253;29;20513;-82
2023/09/26 06:05:29;;;;;;;1.50;1.10;;;13.60;98.20;;;;;;4879871;29;20585;-82
2023/09/26 06:07:56;;;;;;;1.50;1.00;;;13.70;98.20;;;;;;4893497;29;20557;-82
2023/09/26 06:10:23;;;;;;;1.50;1.00;;;13.70;98.20;;;;;;4884790;29;20938;-83
2023/09/26 06:12:49;;;;;;;1.50;1.10;;;13.80;98.20;;;;;;4886942;29;20660;-82
2023/09/26 06:15:18;;;;;;;1.50;1.00;;;13.80;98.20;;;;;;4888968;29;20481;-82
2023/09/26 06:17:44;;;;;;;1.50;1.00;;;13.90;98.20;;;;;;4890187;29;20501;-83
2023/09/26 06:20:12;;;;;;;1.50;1.10;;;14.00;98.20;;;;;;4894554;29;20467;-83
2023/09/26 06:23:09;;;;;;;1.50;1.10;;;14.10;98.20;;;;;;4898908;29;20505;-82
2023/09/26 06:25:36;;;;;;;1.50;1.10;;;14.20;98.20;;;;;;4831392;29;20499;-83
2023/09/26 06:28:02;;;;;;;1.50;1.00;;;14.30;98.20;;;;;;4872026;29;20493;-83
2023/09/26 06:30:31;;;;;;;1.50;1.10;;;14.40;98.20;;;;;;4890496;29;20776;-83
2023/09/26 06:33:00;;;;;;;1.50;1.10;;;14.60;98.20;;;;;;4891286;29;20577;-83
2023/09/26 06:35:27;;;;;;;1.50;1.00;;;14.80;98.20;;;;;;4885932;29;20553;-83
2023/09/26 06:37:54;;;;;;;1.50;1.10;;;14.90;98.20;;;;;;4890164;29;20616;-83
2023/09/26 06:40:21;;;;;;;1.50;1.03;;;15.00;98.20;;;;;;4882358;29;20479;-82
2023/09/26 06:42:48;;;;;;;1.50;1.10;;;15.00;98.20;;;;;;4887952;29;20588;-83
2023/09/26 06:45:15;;;;;;;1.50;1.10;;;15.00;98.20;;;;;;4880232;29;20555;-81
2023/09/26 06:47:43;;;;;;;1.50;1.00;;;15.00;98.20;;;;;;4884287;29;20489;-82
2023/09/26 06:50:14;;;;;;;1.47;1.00;;;15.10;98.20;;;;;;4882365;29;20481;-83
2023/09/26 06:52:41;;;;;;;1.50;0.90;;;15.10;98.20;;;;;;4886981;29;21166;-83
2023/09/26 06:55:10;;;;;;;1.50;1.00;;;15.10;98.20;;;;;;4880369;29;20502;-82
2023/09/26 06:57:37;;;;;;;1.50;1.00;;;15.10;98.20;;;;;;4885583;29;20493;-82
2023/09/26 07:00:06;;;;;;;1.50;1.00;;;15.10;98.20;;;;;;4881106;29;20478;-82
2023/09/26 07:02:33;;;;;;;2.90;2.60;;;15.20;98.20;;;;;;4881434;29;21276;-83
2023/09/26 07:05:01;;;;;;;1.47;1.00;;;15.30;98.20;;;;;;4881448;29;20807;-82
2023/09/26 07:07:31;;;;;;;1.50;1.00;;;15.50;98.20;;;;;;4888861;29;20490;-83
2023/09/26 07:10:00;;;;;;;1.50;1.03;;;15.60;98.20;;;;;;4884098;29;20477;-83
2023/09/26 07:12:27;;;;;;;1.50;1.00;;;15.70;98.20;;;;;;4890041;29;20927;-82
2023/09/26 07:14:55;;;;;;;1.50;1.00;;;15.80;98.20;;;;;;4887261;29;20481;-83
2023/09/26 07:17:22;;;;;;;1.50;1.10;;;15.90;98.20;;;;;;4884317;29;20521;-83
2023/09/26 07:19:49;;;;;;;1.50;1.10;;;16.00;98.20;;;;;;4884162;29;20609;-83
2023/09/26 07:22:18;;;;;;;1.50;1.10;;;16.20;98.20;;;;;;4887171;29;20497;-82
2023/09/26 07:24:49;;;;;;;1.50;1.00;;;16.30;98.20;;;;;;4882767;29;20518;-82
2023/09/26 07:27:15;;;;;;;1.50;0.90;;;16.50;98.20;;;;;;4877623;29;20533;-83
2023/09/26 07:29:45;;;;;;;1.50;1.00;;;16.70;98.20;;;;;;4882747;29;20541;-82
2023/09/26 07:32:12;;;;;;;1.50;0.90;;;16.80;98.20;;;;;;4881248;29;20499;-82
2023/09/26 07:34:41;;;;;;;1.50;0.90;;;16.90;98.20;;;;;;4891956;29;20472;-82
2023/09/26 07:37:09;;;;;;;1.50;0.90;;;17.10;98.20;;;;;;4881927;29;21004;-83
2023/09/26 07:39:40;;;;;;;1.47;0.97;;;17.30;98.20;;;;;;4887357;29;20477;-83
2023/09/26 07:42:06;;;;;;;1.50;1.00;;;17.40;98.20;;;;;;4878117;29;20478;-84
2023/09/26 07:44:33;;;;;;;1.50;1.00;;;17.50;98.20;;;;;;4886104;29;20511;-82
2023/09/26 07:47:04;;;;;;;1.50;1.00;;;17.60;98.20;;;;;;4879186;29;20497;-84
2023/09/26 07:49:31;;;;;;;1.50;1.00;;;17.60;98.20;;;;;;4885557;29;21080;-83
2023/09/26 07:51:58;;;;;;;1.50;1.00;;;17.70;98.20;;;;;;4879674;29;20497;-82
2023/09/26 07:54:24;;;;;;;1.50;1.00;;;17.80;98.20;;;;;;4883335;29;20892;-82
2023/09/26 07:56:53;;;;;;;1.47;0.90;;;17.80;98.20;;;;;;4879762;29;20552;-83
2023/09/26 07:59:19;;;;;;;1.43;0.90;;;17.80;98.20;;;;;;4890481;29;20466;-82
2023/09/26 08:01:46;;;;;;;1.50;0.90;;;17.80;98.20;;;;;;4885572;29;20565;-82
2023/09/26 08:04:13;;;;;;;1.50;1.00;;;18.00;98.20;;;;;;4889682;29;20504;-83
2023/09/26 08:06:40;;;;;;;1.50;0.90;;;18.10;98.20;;;;;;4877316;29;20507;-83
2023/09/26 08:09:07;;;;;;;1.43;0.90;;;18.20;98.20;;;;;;4887439;29;20549;-82
2023/09/26 08:11:33;;;;;;;1.50;0.90;;;18.20;98.20;;;;;;4878296;29;20485;-83
2023/09/26 08:14:02;;;;;;;1.50;1.20;;;18.40;98.20;;;;;;4882724;29;20545;-81
2023/09/26 08:16:28;;;;;;;1.50;0.97;;;18.50;98.20;;;;;;4872766;29;20489;-82
2023/09/26 08:18:56;;;;;;;1.50;0.90;;;18.70;98.20;;;;;;4889671;29;20470;-82
2023/09/26 08:21:26;;;;;;;1.50;0.90;;;18.80;98.20;;;;;;4874857;29;20515;-82
2023/09/26 08:23:56;;;;;;;1.50;1.00;;;19.00;98.20;;;;;;4893123;29;20485;-81
2023/09/26 08:26:23;;;;;;;1.50;0.90;;;19.10;98.20;;;;;;4878996;29;20512;-82
2023/09/26 08:28:50;;;;;;;1.50;0.90;;;19.20;98.20;;;;;;4888380;29;20473;-81
2023/09/26 08:31:19;;;;;;;1.50;1.00;;;19.30;98.20;;;;;;4873916;29;20489;-83
2023/09/26 08:33:53;;;;;;;1.50;0.90;;;19.50;98.20;;;;;;4890968;29;20465;-81
2023/09/26 08:36:21;;;;;;;1.50;0.90;;;19.50;97.70;;;;;;4876224;29;20783;-82
2023/09/26 08:38:52;;;;;;;1.50;0.90;;;19.60;98.20;;;;;;4894046;29;20476;-82
2023/09/26 08:41:26;;;;;;;1.50;0.90;;;19.80;97.80;;;;;;4868066;29;20567;-83
2023/09/26 08:43:53;;;;;;;1.50;0.90;;;19.90;98.10;;;;;;4884733;29;20848;-82
2023/09/26 08:46:22;;;;;;;1.50;1.00;;;20.00;97.30;;;;;;4871442;29;20487;-81
2023/09/26 08:48:49;;;;;;;1.50;0.90;;;20.10;97.40;;;;;;4892096;29;20476;-81
2023/09/26 08:51:16;;;;;;;1.43;0.90;;;20.10;97.60;;;;;;4874448;29;20489;-83
2023/09/26 08:53:43;;;;;;;1.47;0.90;;;20.20;96.40;;;;;;4889037;29;20995;-81
2023/09/26 08:56:10;;;;;;;1.60;1.30;;;20.30;96.20;;;;;;4876958;29;20607;-81
2023/09/26 08:58:41;;;;;;;1.50;0.90;;;20.40;97.00;;;;;;4890277;29;20601;-82
2023/09/26 09:01:16;;;;;;;1.50;0.90;;;20.40;97.00;;;;;;4873338;29;20632;-81
2023/09/26 09:03:55;;;;;;;1.40;0.90;;;20.60;96.40;;;;;;4884548;29;20471;-82
2023/09/26 09:06:27;;;;;;;1.43;0.90;;;20.70;95.30;;;;;;4872054;29;21026;-83
2023/09/26 09:09:08;;;;;;;1.50;0.90;;;20.80;95.50;;;;;;4889262;29;20473;-84
2023/09/26 09:11:35;;;;;;;1.47;0.90;;;20.90;94.30;;;;;;4880145;29;20511;-82
2023/09/26 09:14:01;;;;;;;1.47;0.90;;;20.90;95.20;;;;;;4893535;29;20475;-82
2023/09/26 09:16:28;;;;;;;1.50;0.90;;;21.00;94.20;;;;;;4877788;29;20525;-81
2023/09/26 09:19:02;;;;;;;1.47;0.90;;;21.10;94.70;;;;;;4889240;29;20478;-81
2023/09/26 09:21:41;;;;;;;1.47;0.90;;;21.10;94.30;;;;;;4878623;29;20517;-81
2023/09/26 09:24:09;;;;;;;1.47;0.90;;;21.20;94.70;;;;;;4892824;29;20484;-82
2023/09/26 09:26:37;;;;;;;1.50;0.90;;;21.30;94.30;;;;;;4880591;29;21120;-83
2023/09/26 09:29:17;;;;;;;1.43;0.90;;;21.40;93.20;;;;;;4891502;29;20465;-84
2023/09/26 09:31:44;;;;;;;1.50;0.90;;;21.50;93.20;;;;;;4882679;29;20498;-82
2023/09/26 09:34:13;;;;;;;1.50;0.90;;;21.50;92.80;;;;;;4886289;29;20470;-83
2023/09/26 09:36:44;;;;;;;1.50;0.90;;;21.70;92.90;;;;;;4886160;29;21219;-82
2023/09/26 09:39:11;;;;;;;1.50;0.90;;;21.80;92.70;;;;;;4897984;29;20989;-82
2023/09/26 09:41:38;;;;;;;1.50;0.90;;;21.90;93.50;;;;;;4879525;29;20491;-81
2023/09/26 09:44:13;;;;;;;1.60;1.20;;;22.00;92.80;;;;;;4899158;29;20473;-83
2023/09/26 09:46:43;;;;;;;1.47;0.90;;;22.10;91.70;;;;;;4893026;29;20493;-85
2023/09/26 09:49:23;;;;;;;1.50;0.90;;;22.20;92.20;;;;;;4900510;29;20636;-84
2023/09/26 09:51:50;;;;;;;1.43;0.83;;;22.40;90.90;;;;;;4892625;29;20714;-83
2023/09/26 09:54:21;;;;;;;1.47;0.90;;;22.50;92.10;;;;;;4896903;29;20461;-83
2023/09/26 09:57:17;;;;;;;1.50;0.90;;;22.70;91.00;;;;;;4880990;29;20557;-83
2023/09/26 09:59:46;;;;;;;1.40;0.90;;;22.90;91.10;;;;;;4896059;29;20481;-85
2023/09/26 10:02:16;;;;;;;1.43;0.90;;;23.00;89.80;;;;;;4881311;29;20513;-84
2023/09/26 10:04:47;;;;;;;1.47;0.90;;;23.10;88.90;;;;;;4880604;29;20466;-84
2023/09/26 10:07:15;;;;;;;1.43;0.90;;;23.20;88.50;;;;;;4881141;29;20786;-83
2023/09/26 10:09:43;;;;;;;1.47;0.90;;;23.30;88.40;;;;;;4881598;29;20503;-82
2023/09/26 10:12:11;;;;;;;1.43;0.90;;;23.40;88.80;;;;;;4876479;29;20501;-84
2023/09/26 10:14:38;;;;;;;1.50;0.90;;;23.50;87.90;;;;;;4879256;29;20481;-84
2023/09/26 10:17:06;;;;;;;1.47;0.90;;;23.60;88.50;;;;;;4877299;29;20490;-84
2023/09/26 10:19:34;;;;;;;1.60;1.10;;;23.80;88.00;;;;;;4883227;29;20574;-82
2023/09/26 10:22:19;;;;;;;1.50;0.90;;;24.00;86.80;;;;;;4874173;29;20481;-83
2023/09/26 10:24:50;;;;;;;1.50;0.90;;;24.10;86.50;;;;;;4882736;29;20504;-83
2023/09/26 10:27:45;;;;;;;1.47;0.90;;;24.20;86.50;;;;;;4880148;29;20517;-84
2023/09/26 10:30:14;;;;;;;2.80;2.07;;;24.30;86.00;;;;;;4876875;29;20466;-82
2023/09/26 10:32:42;;;;;;;1.50;0.90;;;24.40;85.40;;;;;;4878179;29;20500;-84
2023/09/26 10:35:28;;;;;;;1.43;0.90;;;24.50;85.40;;;;;;4878266;29;20506;-84
2023/09/26 10:38:18;;;;;;;1.47;0.87;;;24.60;83.70;;;;;;4884216;29;20536;-86
2023/09/26 10:40:45;;;;;;;1.50;0.90;;;24.60;84.60;;;;;;4880084;29;20575;-83
2023/09/26 10:43:12;;;;;;;1.50;0.90;;;24.70;83.90;;;;;;4870147;29;20478;-82
2023/09/26 10:45:44;;;;;;;1.43;0.90;;;24.80;84.00;;;;;;4882648;29;20650;-82
2023/09/26 10:48:11;;;;;;;1.47;0.80;;;25.00;84.10;;;;;;4886020;29;21014;-83
2023/09/26 10:50:38;;;;;;;1.47;0.87;;;25.20;84.20;;;;;;4886294;29;20481;-82
2023/09/26 10:53:07;;;;;;;1.50;0.80;;;25.30;82.40;;;;;;4882214;29;20592;-83
2023/09/26 10:55:35;;;;;;;1.50;0.80;;;25.30;82.00;;;;;;4882546;29;20498;-83
2023/09/26 10:58:02;;;;;;;1.47;0.87;;;25.40;82.90;;;;;;4880750;29;20882;-82
2023/09/26 11:00:28;;;;;;;1.50;0.90;;;25.50;81.70;;;;;;4879559;29;20981;-83
2023/09/26 11:02:59;;;;;;;1.50;0.90;;;25.50;81.70;;;;;;4883939;29;20513;-84
2023/09/26 11:05:27;;;;;;;1.50;0.90;;;25.30;81.50;;;;;;4879607;29;20908;-84
2023/09/26 11:07:56;;;;;;;1.50;0.80;;;25.20;81.80;;;;;;4882500;29;20919;-83
2023/09/26 11:10:24;;;;;;;1.43;0.80;;;25.10;82.60;;;;;;4880393;29;20475;-81
2023/09/26 11:12:52;;;;;;;1.47;0.90;;;25.10;82.10;;;;;;4888108;29;20516;-82
2023/09/26 11:15:19;;;;;;;1.50;1.00;;;25.20;80.80;;;;;;4880495;29;20474;-81
2023/09/26 11:17:49;;;;;;;1.40;0.80;;;25.20;82.30;;;;;;4887435;29;20504;-81
2023/09/26 11:20:18;;;;;;;1.50;0.80;;;25.30;82.00;;;;;;4882491;29;20467;-82
2023/09/26 11:22:46;;;;;;;1.50;0.90;;;25.40;80.80;;;;;;4884016;29;21046;-81
2023/09/26 11:25:16;;;;;;;1.43;0.80;;;25.50;82.50;;;;;;4880063;29;20493;-82
2023/09/26 11:27:46;;;;;;;1.43;0.90;;;25.70;81.20;;;;;;4883503;29;20499;-82
2023/09/26 11:30:16;;;;;;;1.43;0.80;;;25.80;80.70;;;;;;4878643;29;20470;-81
2023/09/26 11:32:45;;;;;;;1.50;0.80;;;26.00;81.60;;;;;;4878482;29;20477;-82
2023/09/26 11:35:12;;;;;;;1.40;0.90;;;26.20;79.30;;;;;;4875592;29;20562;-82
2023/09/26 11:37:39;;;;;;;1.43;0.80;;;26.30;78.30;;;;;;4878438;29;20552;-83
2023/09/26 11:40:12;;;;;;;1.47;0.90;;;26.30;78.70;;;;;;4877448;29;20538;-80
2023/09/26 11:42:58;;;;;;;1.50;0.90;;;26.30;78.00;;;;;;4882883;29;21019;-83
2023/09/26 11:45:40;;;;;;;1.43;0.80;;;26.50;79.60;;;;;;4878529;29;20476;-82
2023/09/26 11:48:10;;;;;;;1.43;0.80;;;26.60;79.20;;;;;;4878126;23;20487;-81
2023/09/26 11:50:39;;;;;;;1.50;1.00;;;26.80;76.90;;;;;;4878360;29;20481;-81
2023/09/26 11:53:06;;;;;;;1.40;0.80;;;26.90;78.70;;;;;;4880183;29;21085;-81
2023/09/26 11:55:35;;;;;;;1.40;0.80;;;27.10;78.50;;;;;;4876182;29;21034;-82
2023/09/26 11:58:03;;;;;;;1.50;0.80;;;27.30;77.40;;;;;;4866670;29;20490;-82
2023/09/26 12:00:30;;;;;;;1.47;0.80;;;27.20;75.40;;;;;;4877654;29;20537;-82
2023/09/26 12:02:57;;;;;;;1.50;0.80;;;27.10;77.30;;;;;;4879910;29;20633;-82
2023/09/26 12:05:24;;;;;;;1.43;0.80;;;27.10;75.50;;;;;;4876502;29;20498;-80
2023/09/26 12:07:55;;;;;;;1.47;0.80;;;27.10;76.30;;;;;;4880820;29;20493;-82
2023/09/26 12:10:24;;;;;;;1.47;0.80;;;27.20;76.00;;;;;;4879577;29;20476;-82
2023/09/26 12:12:51;;;;;;;1.43;0.90;;;27.30;77.90;;;;;;4881502;29;20489;-83
2023/09/26 12:15:21;;;;;;;1.43;0.80;;;27.50;75.70;;;;;;4882816;29;20505;-82
2023/09/26 12:17:48;;;;;;;1.40;0.80;;;27.60;76.40;;;;;;4887346;29;20599;-81
2023/09/26 12:20:21;;;;;;;1.40;0.80;;;27.70;76.80;;;;;;4880188;29;20687;-82
2023/09/26 12:22:59;;;;;;;1.47;0.80;;;27.70;75.40;;;;;;4883399;29;20496;-83
2023/09/26 12:25:27;;;;;;;1.47;0.80;;;27.70;74.20;;;;;;4872268;29;20470;-83
2023/09/26 12:27:55;;;;;;;1.43;0.90;;;27.60;74.30;;;;;;4877426;29;21087;-84
2023/09/26 12:30:30;;;;;;;1.43;0.80;;;27.60;76.90;;;;;;4872799;29;20761;-82
2023/09/26 12:32:58;;;;;;;1.50;0.80;;;27.70;75.40;;;;;;4872314;29;20600;-81
2023/09/26 12:35:25;;;;;;;1.43;0.90;;;27.80;74.40;;;;;;4873297;29;20465;-81
2023/09/26 12:37:54;;;;;;;1.50;0.90;;;27.80;74.70;;;;;;4882142;29;20488;-82
2023/09/26 12:40:21;;;;;;;1.43;0.80;;;27.90;74.30;;;;;;4877019;29;20957;-83
2023/09/26 12:42:48;;;;;;;1.50;1.00;;;27.90;74.70;;;;;;4879922;29;20492;-81
2023/09/26 12:45:15;;;;;;;1.43;0.90;;;28.00;74.40;;;;;;4876660;29;20639;-81
2023/09/26 12:47:43;;;;;;;1.50;0.83;;;28.00;75.40;;;;;;4880940;29;20505;-82
2023/09/26 12:50:10;;;;;;;1.50;0.90;;;28.20;74.70;;;;;;4877616;29;20473;-84
2023/09/26 12:52:38;;;;;;;1.50;0.80;;;28.20;75.80;;;;;;4880454;29;20496;-82
2023/09/26 12:55:05;;;;;;;1.47;0.90;;;28.30;75.20;;;;;;4877553;29;20534;-81
2023/09/26 12:57:33;;;;;;;1.43;0.80;;;28.40;74.40;;;;;;4881856;29;20897;-83
2023/09/26 13:00:00;;;;;;;1.47;0.80;;;28.50;74.20;;;;;;4877674;29;20468;-81
2023/09/26 13:02:27;;;;;;;1.43;0.80;;;28.50;74.00;;;;;;4881742;29;20488;-82
2023/09/26 13:04:56;;;;;;;1.47;0.80;;;28.50;74.60;;;;;;4879656;29;20461;-81
2023/09/26 13:07:23;;;;;;;1.50;0.90;;;28.60;74.90;;;;;;4877838;29;20543;-82
2023/09/26 13:09:50;;;;;;;1.43;0.80;;;28.60;73.20;;;;;;4880243;29;20533;-81